Geeveston, Tasmania

4:23 AM AEDT on February 08, 2016 (GMT +1100)
Geeveston petenjohn | | Change Station
CLOSE
Current Station
Personal Weather Station
Location: Geeveston, TASMANIA
Elevation: 167 ft
Nearby Weather Stations

Elev 167 ft 43.16 °S, 146.92 °E | Updated 5 seconds ago

Mostly Cloudy
Mostly Cloudy
54.9 °F
Feels Like 54.9 °F
N
0.0
Wind Variable Wind from North
Gusts 0.0 mph

Today
High -- | Low -- °F
--% Chance of Precip.
Yesterday
High -- | Low -- °F
Precip. -- in
Pressure 30.04 in
Visibility 6.2 miles
Clouds Few 1500 ft
Mostly Cloudy 5500 ft
Dew Point 51 °F
Humidity 87%
Rainfall 0.00 in
Snow Depth Not available.
6:22 AM 8:30 PM
Waning Crescent, 1% visible
SPECI YMHB 071700Z 00000KT 9999 FEW015 BKN055 18/15 Q1017
Pressure 30.04 in
Visibility 6.2 miles
Clouds Few 1500 ft
Mostly Cloudy 5500 ft
Dew Point 51 °F
Humidity 87%
Rainfall 0.00 in
Snow Depth Not available.
6:22 AM 8:30 PM
Waning Crescent, 1% visible
SPECI YMHB 071700Z 00000KT 9999 FEW015 BKN055 18/15 Q1017

10-Day Weather Forecast

Almanac

Astronomy

Feb. 08, 2016 Rise Set
Actual Time
Civil Twilight
Nautical Twilight
Astronomical Twilight
Moon
Length of Visible Light
Length of Day
Tomorrow will be .
, % of the Moon is Illuminated

Today's Extremes

Country Highs Country Lows

Community

WunderPhotos

Upload Photos

1,891,237 photos uploaded!

WunderBlog® & News

Nearby

Air Quality

  Air Quality AQ Index Pollutant
Not available.

Snow Depth

Station Depth Elevation

Earthquake Activity

City Distance Mag. Time & Date
Minimum magnitude displayed is 2.5.

Coastal Water Temperatures

Place Temperature

Stations

Nearby Weather Stations

Station Location Temp. Windchill Dew Point Humidity Wind Precip. Elev Updated Type